sensor_id;sensor_type;location;lat;lon;timestamp;P1;durP1;ratioP1;P2;durP2;ratioP2
77748;SDS011;66938;52.084;5.228;2024-01-11T00:01:56;18.41;;;14.2;;
77748;SDS011;66938;52.084;5.228;2024-01-11T00:03:32;19.61;;;14.3;;
77748;SDS011;66938;52.084;5.228;2024-01-11T00:05:08;18.5;;;14.3;;
77748;SDS011;66938;52.084;5.228;2024-01-11T00:08:21;18.3;;;14.1;;
77748;SDS011;66938;52.084;5.228;2024-01-11T00:09:57;18.91;;;14.7;;
77748;SDS011;66938;52.084;5.228;2024-01-11T00:11:33;17.91;;;14.1;;
77748;SDS011;66938;52.084;5.228;2024-01-11T00:14:46;18.8;;;14.0;;
77748;SDS011;66938;52.084;5.228;2024-01-11T00:16:21;18.91;;;14.8;;
77748;SDS011;66938;52.084;5.228;2024-01-11T00:17:58;18.7;;;14.9;;
77748;SDS011;66938;52.084;5.228;2024-01-11T00:19:34;18.11;;;14.2;;
77748;SDS011;66938;52.084;5.228;2024-01-11T00:22:46;18.2;;;14.8;;
77748;SDS011;66938;52.084;5.228;2024-01-11T00:24:22;20.0;;;14.1;;
77748;SDS011;66938;52.084;5.228;2024-01-11T00:25:58;18.5;;;14.2;;
77748;SDS011;66938;52.084;5.228;2024-01-11T00:29:10;19.11;;;14.2;;
77748;SDS011;66938;52.084;5.228;2024-01-11T00:30:46;20.9;;;14.7;;
77748;SDS011;66938;52.084;5.228;2024-01-11T00:32:22;18.11;;;14.0;;
77748;SDS011;66938;52.084;5.228;2024-01-11T00:35:35;17.61;;;14.1;;
77748;SDS011;66938;52.084;5.228;2024-01-11T00:37:11;18.2;;;14.8;;
77748;SDS011;66938;52.084;5.228;2024-01-11T00:38:47;18.7;;;15.1;;
77748;SDS011;66938;52.084;5.228;2024-01-11T00:41:59;18.41;;;14.5;;
77748;SDS011;66938;52.084;5.228;2024-01-11T00:43:35;18.5;;;13.7;;
77748;SDS011;66938;52.084;5.228;2024-01-11T00:45:11;19.11;;;14.3;;
77748;SDS011;66938;52.084;5.228;2024-01-11T00:46:47;19.11;;;14.4;;
77748;SDS011;66938;52.084;5.228;2024-01-11T00:49:59;18.7;;;14.6;;
77748;SDS011;66938;52.084;5.228;2024-01-11T00:51:35;17.91;;;14.7;;
77748;SDS011;66938;52.084;5.228;2024-01-11T00:53:12;17.8;;;14.7;;
77748;SDS011;66938;52.084;5.228;2024-01-11T00:56:24;18.91;;;14.3;;
77748;SDS011;66938;52.084;5.228;2024-01-11T00:58:00;19.0;;;14.7;;
77748;SDS011;66938;52.084;5.228;2024-01-11T00:59:36;20.8;;;15.2;;
77748;SDS011;66938;52.084;5.228;2024-01-11T01:02:48;22.1;;;16.11;;
77748;SDS011;66938;52.084;5.228;2024-01-11T01:04:24;19.7;;;15.3;;
77748;SDS011;66938;52.084;5.228;2024-01-11T01:06:00;20.6;;;16.0;;
77748;SDS011;66938;52.084;5.228;2024-01-11T01:07:36;20.3;;;15.0;;
77748;SDS011;66938;52.084;5.228;2024-01-11T01:10:49;20.7;;;15.5;;
77748;SDS011;66938;52.084;5.228;2024-01-11T01:12:25;20.2;;;16.0;;
77748;SDS011;66938;52.084;5.228;2024-01-11T01:14:01;19.41;;;15.3;;
77748;SDS011;66938;52.084;5.228;2024-01-11T01:17:13;19.5;;;14.9;;
77748;SDS011;66938;52.084;5.228;2024-01-11T01:18:49;19.3;;;15.2;;
77748;SDS011;66938;52.084;5.228;2024-01-11T01:20:25;20.2;;;15.0;;
77748;SDS011;66938;52.084;5.228;2024-01-11T01:23:37;20.8;;;15.4;;
77748;SDS011;66938;52.084;5.228;2024-01-11T01:25:14;18.3;;;14.3;;
77748;SDS011;66938;52.084;5.228;2024-01-11T01:26:50;18.3;;;14.3;;
77748;SDS011;66938;52.084;5.228;2024-01-11T01:30:02;19.11;;;14.5;;
77748;SDS011;66938;52.084;5.228;2024-01-11T01:31:39;19.7;;;15.1;;
77748;SDS011;66938;52.084;5.228;2024-01-11T01:33:15;21.0;;;15.9;;
77748;SDS011;66938;52.084;5.228;2024-01-11T01:34:51;20.5;;;15.3;;
77748;SDS011;66938;52.084;5.228;2024-01-11T01:38:03;22.0;;;16.7;;
77748;SDS011;66938;52.084;5.228;2024-01-11T01:39:39;19.7;;;15.7;;
77748;SDS011;66938;52.084;5.228;2024-01-11T01:41:15;21.2;;;16.3;;
77748;SDS011;66938;52.084;5.228;2024-01-11T01:44:34;22.6;;;16.3;;
77748;SDS011;66938;52.084;5.228;2024-01-11T01:46:10;22.0;;;16.9;;
77748;SDS011;66938;52.084;5.228;2024-01-11T01:47:47;21.7;;;15.9;;
77748;SDS011;66938;52.084;5.228;2024-01-11T01:51:00;21.0;;;15.7;;
77748;SDS011;66938;52.084;5.228;2024-01-11T01:52:37;22.2;;;16.3;;
77748;SDS011;66938;52.084;5.228;2024-01-11T01:54:18;20.41;;;15.5;;
77748;SDS011;66938;52.084;5.228;2024-01-11T01:55:56;19.7;;;15.1;;
77748;SDS011;66938;52.084;5.228;2024-01-11T01:59:10;22.2;;;18.0;;
77748;SDS011;66938;52.084;5.228;2024-01-11T02:00:49;23.0;;;16.61;;
77748;SDS011;66938;52.084;5.228;2024-01-11T02:02:27;22.5;;;17.7;;
77748;SDS011;66938;52.084;5.228;2024-01-11T02:05:40;24.6;;;17.8;;
77748;SDS011;66938;52.084;5.228;2024-01-11T02:07:16;23.5;;;17.41;;
77748;SDS011;66938;52.084;5.228;2024-01-11T02:08:53;24.0;;;17.91;;
77748;SDS011;66938;52.084;5.228;2024-01-11T02:10:31;22.6;;;17.41;;
77748;SDS011;66938;52.084;5.228;2024-01-11T02:13:45;23.1;;;17.11;;
77748;SDS011;66938;52.084;5.228;2024-01-11T02:15:21;22.7;;;16.9;;
77748;SDS011;66938;52.084;5.228;2024-01-11T02:16:57;24.3;;;17.91;;
77748;SDS011;66938;52.084;5.228;2024-01-11T02:20:11;20.9;;;16.11;;
77748;SDS011;66938;52.084;5.228;2024-01-11T02:21:48;20.9;;;16.11;;
77748;SDS011;66938;52.084;5.228;2024-01-11T02:23:29;23.8;;;18.3;;
77748;SDS011;66938;52.084;5.228;2024-01-11T02:25:06;22.8;;;17.7;;
77748;SDS011;66938;52.084;5.228;2024-01-11T02:28:34;24.1;;;18.7;;
77748;SDS011;66938;52.084;5.228;2024-01-11T02:30:11;21.4;;;17.2;;
77748;SDS011;66938;52.084;5.228;2024-01-11T02:31:47;22.8;;;17.61;;
77748;SDS011;66938;52.084;5.228;2024-01-11T02:33:23;22.5;;;17.8;;
77748;SDS011;66938;52.084;5.228;2024-01-11T02:36:38;22.0;;;16.61;;
77748;SDS011;66938;52.084;5.228;2024-01-11T02:38:15;21.5;;;16.9;;
77748;SDS011;66938;52.084;5.228;2024-01-11T02:39:52;22.8;;;17.41;;
77748;SDS011;66938;52.084;5.228;2024-01-11T02:43:07;23.5;;;18.0;;
77748;SDS011;66938;52.084;5.228;2024-01-11T02:44:44;24.3;;;18.7;;
77748;SDS011;66938;52.084;5.228;2024-01-11T02:46:20;25.9;;;17.91;;
77748;SDS011;66938;52.084;5.228;2024-01-11T02:49:32;24.7;;;17.8;;
77748;SDS011;66938;52.084;5.228;2024-01-11T02:51:08;24.3;;;18.61;;
77748;SDS011;66938;52.084;5.228;2024-01-11T02:52:44;24.4;;;19.0;;
77748;SDS011;66938;52.084;5.228;2024-01-11T02:54:20;27.0;;;20.3;;
77748;SDS011;66938;52.084;5.228;2024-01-11T02:57:33;25.2;;;19.0;;
77748;SDS011;66938;52.084;5.228;2024-01-11T02:59:12;25.8;;;20.11;;
77748;SDS011;66938;52.084;5.228;2024-01-11T03:00:48;25.7;;;19.11;;
77748;SDS011;66938;52.084;5.228;2024-01-11T03:04:00;25.1;;;19.41;;
77748;SDS011;66938;52.084;5.228;2024-01-11T03:05:36;26.8;;;19.8;;
77748;SDS011;66938;52.084;5.228;2024-01-11T03:07:12;26.9;;;20.0;;
77748;SDS011;66938;52.084;5.228;2024-01-11T03:10:24;27.3;;;20.7;;
77748;SDS011;66938;52.084;5.228;2024-01-11T03:12:00;26.9;;;20.11;;
77748;SDS011;66938;52.084;5.228;2024-01-11T03:13:36;29.3;;;22.1;;
77748;SDS011;66938;52.084;5.228;2024-01-11T03:15:12;28.4;;;22.4;;
77748;SDS011;66938;52.084;5.228;2024-01-11T03:18:25;29.5;;;22.7;;
77748;SDS011;66938;52.084;5.228;2024-01-11T03:20:01;27.5;;;20.7;;
77748;SDS011;66938;52.084;5.228;2024-01-11T03:21:40;28.6;;;21.2;;
77748;SDS011;66938;52.084;5.228;2024-01-11T03:24:54;28.8;;;22.4;;
77748;SDS011;66938;52.084;5.228;2024-01-11T03:26:30;26.7;;;21.0;;
77748;SDS011;66938;52.084;5.228;2024-01-11T03:28:06;27.4;;;22.2;;
77748;SDS011;66938;52.084;5.228;2024-01-11T03:31:19;28.0;;;22.4;;
77748;SDS011;66938;52.084;5.228;2024-01-11T03:32:54;30.1;;;23.2;;
77748;SDS011;66938;52.084;5.228;2024-01-11T03:34:31;29.0;;;22.8;;
77748;SDS011;66938;52.084;5.228;2024-01-11T03:36:07;29.2;;;22.4;;
77748;SDS011;66938;52.084;5.228;2024-01-11T03:39:20;26.1;;;20.6;;
77748;SDS011;66938;52.084;5.228;2024-01-11T03:40:56;30.7;;;22.7;;
77748;SDS011;66938;52.084;5.228;2024-01-11T03:42:32;30.1;;;23.7;;
77748;SDS011;66938;52.084;5.228;2024-01-11T03:45:44;30.3;;;22.6;;
77748;SDS011;66938;52.084;5.228;2024-01-11T03:47:20;30.1;;;22.7;;
77748;SDS011;66938;52.084;5.228;2024-01-11T03:48:56;30.4;;;24.5;;
77748;SDS011;66938;52.084;5.228;2024-01-11T03:52:09;33.4;;;25.3;;
77748;SDS011;66938;52.084;5.228;2024-01-11T03:53:45;32.21;;;24.5;;
77748;SDS011;66938;52.084;5.228;2024-01-11T03:55:21;32.71;;;25.2;;
77748;SDS011;66938;52.084;5.228;2024-01-11T03:58:35;32.4;;;24.8;;
77748;SDS011;66938;52.084;5.228;2024-01-11T04:00:11;32.0;;;25.2;;
77748;SDS011;66938;52.084;5.228;2024-01-11T04:01:48;32.21;;;25.5;;
77748;SDS011;66938;52.084;5.228;2024-01-11T04:03:24;34.0;;;27.3;;
77748;SDS011;66938;52.084;5.228;2024-01-11T04:06:36;34.81;;;26.8;;
77748;SDS011;66938;52.084;5.228;2024-01-11T04:08:12;33.9;;;26.1;;
77748;SDS011;66938;52.084;5.228;2024-01-11T04:09:49;34.4;;;27.0;;
77748;SDS011;66938;52.084;5.228;2024-01-11T04:13:03;34.71;;;27.1;;
77748;SDS011;66938;52.084;5.228;2024-01-11T04:14:39;36.5;;;28.4;;
77748;SDS011;66938;52.084;5.228;2024-01-11T04:16:15;34.9;;;26.1;;
77748;SDS011;66938;52.084;5.228;2024-01-11T04:19:27;36.4;;;27.4;;
77748;SDS011;66938;52.084;5.228;2024-01-11T04:21:03;35.31;;;28.0;;
77748;SDS011;66938;52.084;5.228;2024-01-11T04:22:39;35.0;;;26.8;;
77748;SDS011;66938;52.084;5.228;2024-01-11T04:24:15;36.9;;;28.2;;
77748;SDS011;66938;52.084;5.228;2024-01-11T04:27:28;38.21;;;30.1;;
77748;SDS011;66938;52.084;5.228;2024-01-11T04:29:04;36.6;;;29.1;;
77748;SDS011;66938;52.084;5.228;2024-01-11T04:30:41;38.1;;;29.9;;
77748;SDS011;66938;52.084;5.228;2024-01-11T04:33:53;41.3;;;30.4;;
77748;SDS011;66938;52.084;5.228;2024-01-11T04:35:29;42.3;;;30.4;;
77748;SDS011;66938;52.084;5.228;2024-01-11T04:37:05;37.21;;;28.6;;
77748;SDS011;66938;52.084;5.228;2024-01-11T04:40:18;42.2;;;31.5;;
77748;SDS011;66938;52.084;5.228;2024-01-11T04:41:54;40.1;;;32.0;;
77748;SDS011;66938;52.084;5.228;2024-01-11T04:43:30;39.81;;;30.5;;
77748;SDS011;66938;52.084;5.228;2024-01-11T04:46:43;38.81;;;29.1;;
77748;SDS011;66938;52.084;5.228;2024-01-11T04:48:20;38.81;;;29.5;;
77748;SDS011;66938;52.084;5.228;2024-01-11T04:49:56;40.81;;;30.7;;
77748;SDS011;66938;52.084;5.228;2024-01-11T04:51:32;41.3;;;31.0;;
77748;SDS011;66938;52.084;5.228;2024-01-11T04:54:44;41.9;;;19.7;;
77748;SDS011;66938;52.084;5.228;2024-01-11T04:56:20;37.21;;;17.61;;
77748;SDS011;66938;52.084;5.228;2024-01-11T04:57:56;48.1;;;20.6;;
77748;SDS011;66938;52.084;5.228;2024-01-11T05:01:11;44.3;;;19.61;;
77748;SDS011;66938;52.084;5.228;2024-01-11T05:02:47;43.6;;;20.7;;
77748;SDS011;66938;52.084;5.228;2024-01-11T05:04:23;45.5;;;19.91;;
77748;SDS011;66938;52.084;5.228;2024-01-11T05:07:36;53.7;;;24.9;;
77748;SDS011;66938;52.084;5.228;2024-01-11T05:09:12;52.9;;;25.4;;
77748;SDS011;66938;52.084;5.228;2024-01-11T05:10:48;32.4;;;15.2;;
77748;SDS011;66938;52.084;5.228;2024-01-11T05:12:24;49.5;;;25.0;;
77748;SDS011;66938;52.084;5.228;2024-01-11T05:15:35;50.5;;;25.5;;
77748;SDS011;66938;52.084;5.228;2024-01-11T05:17:11;43.1;;;19.61;;
77748;SDS011;66938;52.084;5.228;2024-01-11T05:18:48;53.9;;;26.3;;
77748;SDS011;66938;52.084;5.228;2024-01-11T05:22:01;52.4;;;26.0;;
77748;SDS011;66938;52.084;5.228;2024-01-11T05:23:39;37.4;;;18.41;;
77748;SDS011;66938;52.084;5.228;2024-01-11T05:25:16;47.6;;;24.1;;
77748;SDS011;66938;52.084;5.228;2024-01-11T05:28:28;54.2;;;27.7;;
77748;SDS011;66938;52.084;5.228;2024-01-11T05:30:04;54.7;;;27.6;;
77748;SDS011;66938;52.084;5.228;2024-01-11T05:31:41;58.3;;;29.7;;
77748;SDS011;66938;52.084;5.228;2024-01-11T05:33:17;58.1;;;29.6;;
77748;SDS011;66938;52.084;5.228;2024-01-11T05:36:29;56.4;;;29.4;;
77748;SDS011;66938;52.084;5.228;2024-01-11T05:38:05;55.0;;;28.9;;
77748;SDS011;66938;52.084;5.228;2024-01-11T05:39:41;53.9;;;29.0;;
77748;SDS011;66938;52.084;5.228;2024-01-11T05:42:53;57.5;;;29.1;;
77748;SDS011;66938;52.084;5.228;2024-01-11T05:44:29;54.9;;;29.3;;
77748;SDS011;66938;52.084;5.228;2024-01-11T05:46:05;56.8;;;30.1;;
77748;SDS011;66938;52.084;5.228;2024-01-11T05:49:20;57.2;;;30.1;;
77748;SDS011;66938;52.084;5.228;2024-01-11T05:50:56;53.7;;;27.9;;
77748;SDS011;66938;52.084;5.228;2024-01-11T05:52:32;56.7;;;30.2;;
77748;SDS011;66938;52.084;5.228;2024-01-11T05:55:44;57.2;;;30.0;;
77748;SDS011;66938;52.084;5.228;2024-01-11T05:57:20;55.7;;;29.3;;
77748;SDS011;66938;52.084;5.228;2024-01-11T05:58:56;58.6;;;29.7;;
77748;SDS011;66938;52.084;5.228;2024-01-11T06:00:33;59.5;;;30.4;;
77748;SDS011;66938;52.084;5.228;2024-01-11T06:03:45;58.7;;;30.5;;
77748;SDS011;66938;52.084;5.228;2024-01-11T06:05:21;58.0;;;29.8;;
77748;SDS011;66938;52.084;5.228;2024-01-11T06:06:57;57.6;;;30.2;;
77748;SDS011;66938;52.084;5.228;2024-01-11T06:10:09;59.2;;;30.4;;
77748;SDS011;66938;52.084;5.228;2024-01-11T06:11:46;56.2;;;30.6;;
77748;SDS011;66938;52.084;5.228;2024-01-11T06:13:21;59.2;;;29.4;;
77748;SDS011;66938;52.084;5.228;2024-01-11T06:16:34;58.5;;;31.1;;
77748;SDS011;66938;52.084;5.228;2024-01-11T06:18:10;60.0;;;31.6;;
77748;SDS011;66938;52.084;5.228;2024-01-11T06:19:46;59.5;;;31.2;;
77748;SDS011;66938;52.084;5.228;2024-01-11T06:21:22;56.8;;;30.4;;
77748;SDS011;66938;52.084;5.228;2024-01-11T06:24:34;58.9;;;31.1;;
77748;SDS011;66938;52.084;5.228;2024-01-11T06:26:10;58.6;;;30.7;;
77748;SDS011;66938;52.084;5.228;2024-01-11T06:27:46;56.6;;;30.4;;
77748;SDS011;66938;52.084;5.228;2024-01-11T06:30:59;64.1;;;32.1;;
77748;SDS011;66938;52.084;5.228;2024-01-11T06:32:35;60.5;;;31.5;;
77748;SDS011;66938;52.084;5.228;2024-01-11T06:34:11;62.6;;;32.21;;
77748;SDS011;66938;52.084;5.228;2024-01-11T06:37:23;57.9;;;29.7;;
77748;SDS011;66938;52.084;5.228;2024-01-11T06:38:59;61.6;;;31.6;;
77748;SDS011;66938;52.084;5.228;2024-01-11T06:40:35;59.5;;;30.3;;
77748;SDS011;66938;52.084;5.228;2024-01-11T06:43:47;60.0;;;30.8;;
77748;SDS011;66938;52.084;5.228;2024-01-11T06:45:24;60.4;;;31.9;;
77748;SDS011;66938;52.084;5.228;2024-01-11T06:46:59;56.8;;;30.8;;
77748;SDS011;66938;52.084;5.228;2024-01-11T06:48:36;61.6;;;32.4;;
77748;SDS011;66938;52.084;5.228;2024-01-11T06:51:48;63.2;;;33.1;;
77748;SDS011;66938;52.084;5.228;2024-01-11T06:53:24;62.5;;;32.5;;
77748;SDS011;66938;52.084;5.228;2024-01-11T06:55:00;63.6;;;32.3;;
77748;SDS011;66938;52.084;5.228;2024-01-11T06:58:12;59.7;;;32.5;;
77748;SDS011;66938;52.084;5.228;2024-01-11T06:59:48;65.7;;;33.21;;
77748;SDS011;66938;52.084;5.228;2024-01-11T07:01:24;67.1;;;33.3;;
77748;SDS011;66938;52.084;5.228;2024-01-11T07:04:37;67.0;;;32.9;;
77748;SDS011;66938;52.084;5.228;2024-01-11T07:06:13;60.3;;;32.0;;
77748;SDS011;66938;52.084;5.228;2024-01-11T07:07:49;66.2;;;33.0;;
77748;SDS011;66938;52.084;5.228;2024-01-11T07:11:01;62.2;;;32.71;;
77748;SDS011;66938;52.084;5.228;2024-01-11T07:12:38;63.3;;;34.0;;
77748;SDS011;66938;52.084;5.228;2024-01-11T07:14:15;65.8;;;33.6;;
77748;SDS011;66938;52.084;5.228;2024-01-11T07:15:51;63.1;;;32.9;;
77748;SDS011;66938;52.084;5.228;2024-01-11T07:19:06;61.7;;;31.7;;
77748;SDS011;66938;52.084;5.228;2024-01-11T07:20:42;61.7;;;31.7;;
77748;SDS011;66938;52.084;5.228;2024-01-11T07:22:18;66.6;;;33.5;;
77748;SDS011;66938;52.084;5.228;2024-01-11T07:25:31;65.2;;;33.71;;
77748;SDS011;66938;52.084;5.228;2024-01-11T07:27:07;70.91;;;33.71;;
77748;SDS011;66938;52.084;5.228;2024-01-11T07:28:43;66.5;;;34.5;;
77748;SDS011;66938;52.084;5.228;2024-01-11T07:31:55;65.5;;;33.8;;
77748;SDS011;66938;52.084;5.228;2024-01-11T07:33:31;66.41;;;33.5;;
77748;SDS011;66938;52.084;5.228;2024-01-11T07:35:07;64.8;;;32.71;;
77748;SDS011;66938;52.084;5.228;2024-01-11T07:36:44;70.61;;;33.9;;
77748;SDS011;66938;52.084;5.228;2024-01-11T07:39:56;66.8;;;35.31;;
77748;SDS011;66938;52.084;5.228;2024-01-11T07:41:33;66.8;;;35.31;;
77748;SDS011;66938;52.084;5.228;2024-01-11T07:43:09;68.3;;;34.81;;
77748;SDS011;66938;52.084;5.228;2024-01-11T07:46:21;67.8;;;33.5;;
77748;SDS011;66938;52.084;5.228;2024-01-11T07:47:57;65.7;;;33.4;;
77748;SDS011;66938;52.084;5.228;2024-01-11T07:49:33;65.0;;;33.21;;
77748;SDS011;66938;52.084;5.228;2024-01-11T07:52:45;65.2;;;33.0;;
77748;SDS011;66938;52.084;5.228;2024-01-11T07:54:21;66.6;;;33.4;;
77748;SDS011;66938;52.084;5.228;2024-01-11T07:55:58;73.91;;;34.4;;
77748;SDS011;66938;52.084;5.228;2024-01-11T07:57:34;65.7;;;33.3;;
77748;SDS011;66938;52.084;5.228;2024-01-11T08:00:47;68.8;;;35.21;;
77748;SDS011;66938;52.084;5.228;2024-01-11T08:02:27;69.41;;;34.1;;
77748;SDS011;66938;52.084;5.228;2024-01-11T08:04:03;67.3;;;34.21;;
77748;SDS011;66938;52.084;5.228;2024-01-11T08:07:16;68.91;;;33.4;;
77748;SDS011;66938;52.084;5.228;2024-01-11T08:08:52;67.3;;;34.81;;
77748;SDS011;66938;52.084;5.228;2024-01-11T08:10:28;68.1;;;34.81;;
77748;SDS011;66938;52.084;5.228;2024-01-11T08:13:41;65.91;;;33.8;;
77748;SDS011;66938;52.084;5.228;2024-01-11T08:15:17;66.0;;;33.1;;
77748;SDS011;66938;52.084;5.228;2024-01-11T08:16:54;69.61;;;34.0;;
77748;SDS011;66938;52.084;5.228;2024-01-11T08:18:30;64.0;;;33.4;;
77748;SDS011;66938;52.084;5.228;2024-01-11T08:21:43;66.3;;;34.1;;
77748;SDS011;66938;52.084;5.228;2024-01-11T08:23:19;65.7;;;33.8;;
77748;SDS011;66938;52.084;5.228;2024-01-11T08:24:55;65.0;;;33.1;;
77748;SDS011;66938;52.084;5.228;2024-01-11T08:28:07;69.61;;;34.9;;
77748;SDS011;66938;52.084;5.228;2024-01-11T08:29:43;62.0;;;32.3;;
77748;SDS011;66938;52.084;5.228;2024-01-11T08:31:19;65.41;;;33.71;;
77748;SDS011;66938;52.084;5.228;2024-01-11T08:34:31;68.61;;;34.31;;
77748;SDS011;66938;52.084;5.228;2024-01-11T08:36:08;67.91;;;34.4;;
77748;SDS011;66938;52.084;5.228;2024-01-11T08:37:44;66.7;;;34.21;;
77748;SDS011;66938;52.084;5.228;2024-01-11T08:40:56;65.8;;;35.21;;
77748;SDS011;66938;52.084;5.228;2024-01-11T08:42:32;58.8;;;32.9;;
77748;SDS011;66938;52.084;5.228;2024-01-11T08:44:08;58.5;;;31.2;;
77748;SDS011;66938;52.084;5.228;2024-01-11T08:45:45;61.4;;;33.6;;
77748;SDS011;66938;52.084;5.228;2024-01-11T08:49:00;59.1;;;31.4;;
77748;SDS011;66938;52.084;5.228;2024-01-11T08:50:37;60.3;;;33.3;;
77748;SDS011;66938;52.084;5.228;2024-01-11T08:52:13;62.0;;;31.4;;
77748;SDS011;66938;52.084;5.228;2024-01-11T08:55:26;58.5;;;32.0;;
77748;SDS011;66938;52.084;5.228;2024-01-11T08:57:02;57.1;;;31.9;;
77748;SDS011;66938;52.084;5.228;2024-01-11T08:58:39;59.0;;;31.5;;
77748;SDS011;66938;52.084;5.228;2024-01-11T09:01:51;59.5;;;32.3;;
77748;SDS011;66938;52.084;5.228;2024-01-11T09:03:27;55.7;;;31.6;;
77748;SDS011;66938;52.084;5.228;2024-01-11T09:05:03;56.7;;;31.4;;
77748;SDS011;66938;52.084;5.228;2024-01-11T09:06:40;58.7;;;32.6;;
77748;SDS011;66938;52.084;5.228;2024-01-11T09:09:52;59.9;;;32.9;;
77748;SDS011;66938;52.084;5.228;2024-01-11T09:11:29;59.0;;;32.4;;
77748;SDS011;66938;52.084;5.228;2024-01-11T09:13:05;59.0;;;33.0;;
77748;SDS011;66938;52.084;5.228;2024-01-11T09:16:17;57.6;;;32.21;;
77748;SDS011;66938;52.084;5.228;2024-01-11T09:17:53;55.7;;;31.8;;
77748;SDS011;66938;52.084;5.228;2024-01-11T09:19:29;57.2;;;32.1;;
77748;SDS011;66938;52.084;5.228;2024-01-11T09:22:41;56.0;;;30.4;;
77748;SDS011;66938;52.084;5.228;2024-01-11T09:24:17;59.3;;;32.4;;
77748;SDS011;66938;52.084;5.228;2024-01-11T09:25:53;55.3;;;30.5;;
77748;SDS011;66938;52.084;5.228;2024-01-11T09:29:05;55.0;;;30.8;;
77748;SDS011;66938;52.084;5.228;2024-01-11T09:30:42;56.7;;;31.8;;
77748;SDS011;66938;52.084;5.228;2024-01-11T09:32:18;58.0;;;31.4;;
77748;SDS011;66938;52.084;5.228;2024-01-11T09:33:54;55.9;;;30.0;;
77748;SDS011;66938;52.084;5.228;2024-01-11T09:37:06;50.6;;;27.9;;
77748;SDS011;66938;52.084;5.228;2024-01-11T09:38:42;51.0;;;28.7;;
77748;SDS011;66938;52.084;5.228;2024-01-11T09:40:18;54.1;;;28.9;;
77748;SDS011;66938;52.084;5.228;2024-01-11T09:43:34;54.3;;;29.3;;
77748;SDS011;66938;52.084;5.228;2024-01-11T09:45:12;51.4;;;28.6;;
77748;SDS011;66938;52.084;5.228;2024-01-11T09:46:49;51.3;;;27.3;;
77748;SDS011;66938;52.084;5.228;2024-01-11T09:48:26;50.5;;;27.7;;
77748;SDS011;66938;52.084;5.228;2024-01-11T09:51:40;50.8;;;28.7;;
77748;SDS011;66938;52.084;5.228;2024-01-11T09:53:20;51.1;;;30.3;;
77748;SDS011;66938;52.084;5.228;2024-01-11T09:54:58;49.4;;;27.1;;
77748;SDS011;66938;52.084;5.228;2024-01-11T09:58:10;45.0;;;26.0;;
77748;SDS011;66938;52.084;5.228;2024-01-11T09:59:47;48.6;;;26.8;;
77748;SDS011;66938;52.084;5.228;2024-01-11T10:01:27;48.6;;;25.6;;
77748;SDS011;66938;52.084;5.228;2024-01-11T10:03:03;47.8;;;25.9;;
77748;SDS011;66938;52.084;5.228;2024-01-11T10:06:17;45.5;;;24.3;;
77748;SDS011;66938;52.084;5.228;2024-01-11T10:07:54;45.4;;;24.9;;
77748;SDS011;66938;52.084;5.228;2024-01-11T10:09:31;45.9;;;24.8;;
77748;SDS011;66938;52.084;5.228;2024-01-11T10:12:43;47.5;;;24.6;;
77748;SDS011;66938;52.084;5.228;2024-01-11T10:14:19;45.9;;;24.4;;
77748;SDS011;66938;52.084;5.228;2024-01-11T10:16:04;48.4;;;24.4;;
77748;SDS011;66938;52.084;5.228;2024-01-11T10:17:44;48.2;;;24.4;;
77748;SDS011;66938;52.084;5.228;2024-01-11T10:20:57;49.7;;;24.6;;
77748;SDS011;66938;52.084;5.228;2024-01-11T10:22:33;48.7;;;24.2;;
77748;SDS011;66938;52.084;5.228;2024-01-11T10:24:09;51.5;;;25.9;;
77748;SDS011;66938;52.084;5.228;2024-01-11T10:27:23;49.3;;;24.5;;
77748;SDS011;66938;52.084;5.228;2024-01-11T10:29:05;47.6;;;24.8;;
77748;SDS011;66938;52.084;5.228;2024-01-11T10:30:45;47.2;;;24.1;;
77748;SDS011;66938;52.084;5.228;2024-01-11T10:32:21;47.0;;;23.3;;
77748;SDS011;66938;52.084;5.228;2024-01-11T10:35:33;48.3;;;24.1;;
77748;SDS011;66938;52.084;5.228;2024-01-11T10:37:11;45.3;;;22.9;;
77748;SDS011;66938;52.084;5.228;2024-01-11T10:38:49;50.8;;;24.9;;
77748;SDS011;66938;52.084;5.228;2024-01-11T10:42:05;47.9;;;23.9;;
77748;SDS011;66938;52.084;5.228;2024-01-11T10:43:41;46.4;;;23.6;;
77748;SDS011;66938;52.084;5.228;2024-01-11T10:45:20;45.6;;;23.0;;
77748;SDS011;66938;52.084;5.228;2024-01-11T10:48:32;47.5;;;23.8;;
77748;SDS011;66938;52.084;5.228;2024-01-11T10:50:13;46.6;;;23.7;;
77748;SDS011;66938;52.084;5.228;2024-01-11T10:51:53;46.4;;;22.4;;
77748;SDS011;66938;52.084;5.228;2024-01-11T10:53:36;46.9;;;23.3;;
77748;SDS011;66938;52.084;5.228;2024-01-11T10:56:54;45.8;;;22.8;;
77748;SDS011;66938;52.084;5.228;2024-01-11T10:58:34;47.7;;;23.0;;
77748;SDS011;66938;52.084;5.228;2024-01-11T11:00:11;45.2;;;22.8;;
77748;SDS011;66938;52.084;5.228;2024-01-11T11:01:48;44.7;;;22.5;;
77748;SDS011;66938;52.084;5.228;2024-01-11T11:05:02;44.0;;;22.3;;
77748;SDS011;66938;52.084;5.228;2024-01-11T11:06:40;46.4;;;22.3;;
77748;SDS011;66938;52.084;5.228;2024-01-11T11:08:18;41.7;;;21.4;;
77748;SDS011;66938;52.084;5.228;2024-01-11T11:11:33;44.3;;;21.8;;
77748;SDS011;66938;52.084;5.228;2024-01-11T11:13:13;45.6;;;23.0;;
77748;SDS011;66938;52.084;5.228;2024-01-11T11:14:50;48.6;;;23.4;;
77748;SDS011;66938;52.084;5.228;2024-01-11T11:16:28;45.9;;;22.9;;
77748;SDS011;66938;52.084;5.228;2024-01-11T11:19:41;46.7;;;22.9;;
77748;SDS011;66938;52.084;5.228;2024-01-11T11:21:18;46.0;;;23.1;;
77748;SDS011;66938;52.084;5.228;2024-01-11T11:23:03;44.3;;;22.5;;
77748;SDS011;66938;52.084;5.228;2024-01-11T11:24:42;43.9;;;21.8;;
77748;SDS011;66938;52.084;5.228;2024-01-11T11:27:55;42.2;;;21.8;;
77748;SDS011;66938;52.084;5.228;2024-01-11T11:29:31;42.5;;;22.5;;
77748;SDS011;66938;52.084;5.228;2024-01-11T11:31:07;42.2;;;21.7;;
77748;SDS011;66938;52.084;5.228;2024-01-11T11:34:40;38.4;;;20.41;;
77748;SDS011;66938;52.084;5.228;2024-01-11T11:36:17;43.1;;;21.5;;
77748;SDS011;66938;52.084;5.228;2024-01-11T11:37:53;41.6;;;21.7;;
77748;SDS011;66938;52.084;5.228;2024-01-11T11:39:32;41.8;;;20.5;;
77748;SDS011;66938;52.084;5.228;2024-01-11T11:42:44;42.5;;;21.6;;
77748;SDS011;66938;52.084;5.228;2024-01-11T11:44:21;42.4;;;22.0;;
77748;SDS011;66938;52.084;5.228;2024-01-11T11:45:57;42.6;;;20.5;;
77748;SDS011;66938;52.084;5.228;2024-01-11T11:49:11;39.0;;;20.5;;
77748;SDS011;66938;52.084;5.228;2024-01-11T11:50:47;40.1;;;21.0;;
77748;SDS011;66938;52.084;5.228;2024-01-11T11:52:24;40.71;;;21.4;;
77748;SDS011;66938;52.084;5.228;2024-01-11T11:54:00;37.81;;;20.6;;
77748;SDS011;66938;52.084;5.228;2024-01-11T11:57:16;37.6;;;21.4;;
77748;SDS011;66938;52.084;5.228;2024-01-11T11:58:53;38.6;;;21.1;;
77748;SDS011;66938;52.084;5.228;2024-01-11T12:00:29;39.9;;;21.5;;
77748;SDS011;66938;52.084;5.228;2024-01-11T12:03:52;39.81;;;20.8;;
77748;SDS011;66938;52.084;5.228;2024-01-11T12:05:28;36.21;;;19.11;;
77748;SDS011;66938;52.084;5.228;2024-01-11T12:07:04;35.31;;;19.5;;
77748;SDS011;66938;52.084;5.228;2024-01-11T12:08:41;38.31;;;20.3;;
77748;SDS011;66938;52.084;5.228;2024-01-11T12:11:57;37.81;;;20.8;;
77748;SDS011;66938;52.084;5.228;2024-01-11T12:13:33;38.6;;;20.9;;
77748;SDS011;66938;52.084;5.228;2024-01-11T12:15:09;38.9;;;20.5;;
77748;SDS011;66938;52.084;5.228;2024-01-11T12:18:21;38.1;;;20.2;;
77748;SDS011;66938;52.084;5.228;2024-01-11T12:19:57;37.6;;;20.11;;
77748;SDS011;66938;52.084;5.228;2024-01-11T12:21:36;37.71;;;20.41;;
77748;SDS011;66938;52.084;5.228;2024-01-11T12:23:12;37.71;;;19.7;;
77748;SDS011;66938;52.084;5.228;2024-01-11T12:26:24;35.9;;;18.41;;
77748;SDS011;66938;52.084;5.228;2024-01-11T12:28:02;35.31;;;18.7;;
77748;SDS011;66938;52.084;5.228;2024-01-11T12:29:39;32.4;;;18.3;;
77748;SDS011;66938;52.084;5.228;2024-01-11T12:32:52;32.0;;;17.91;;